Providence, RI

10:49 EST le 23 novembre 2014 (GMT -0500)
College Hill | Change Station
CLOSE
Current Station
Stations météorologiques personnelles
Location: Providence, RI
Altitude: 81 ft
Stations météo à proximité
Avis météorologiques actifs: Coastal Flood Statement

Alt. 81 ft 41.82 °N, 71.40 °W | Updated 26 seconds ago

Nuageux
Nuageux
52.0 ° F
Paraît 52.0 ° F
N
2.0
Vent Variable Vent de Ouest
Gusts 8.0 mph

Aujourd'hui
Haut(e) -- | Bas -- ° F
--% Risque de précip.
Hier
Haut(e) -- | Bas -- ° F
Precip. -- pouce
6:44 AM 4:19 PM
Nouvelle lune, 2% visible
Pression 30.19 pouce
Visibilité 10.0 Miles terrestres
Nuages Nuageux 6500 ft
Nuageux 9500 ft
Point de rosée 34 ° F
Humidité 51%
Précipitations 0.00 pouce
Profondeur de la couche neigeuse Non disponible.
UV 1 sur 12
Pollen .10 sur 12
Qualité de l'air Non disponible.
Flu Activity Non disponible.
METAR KPVD 231451Z 22006KT 10SM BKN065 BKN095 09/M01 A3018 RMK AO2 RAE1358 SLP221 P0000 60000 T00941006 51011

More Conditions Fewer Conditions

Pression 30.19 pouce
Visibilité 10.0 Miles terrestres
Nuages Nuageux 6500 ft
Nuageux 9500 ft
Point de rosée 34 ° F
Humidité 51%
Précipitations 0.00 pouce
Profondeur de la couche neigeuse Non disponible.
UV 1 sur 12
Pollen .10 sur 12
Qualité de l'air Non disponible.
Flu Activity Non disponible.
METAR KPVD 231451Z 22006KT 10SM BKN065 BKN095 09/M01 A3018 RMK AO2 RAE1358 SLP221 P0000 60000 T00941006 51011

More Conditions Fewer Conditions

10-Day Weather Forecast

Almanac

Astronomie

Nov. 23, 2014 Lever Coucher
Temps réel
Crépuscule civil
Crépuscule nautique
Crépuscule astronomique
Lune
Durée de lumière visible
Longueur du jour
Tomorrow will be .
, % of the Moon is Illuminated

Extrêmes aujourd'hui

State Highs State Lows

Community

WunderPhotos

Upload Photos

1,773,082 Photos téléchargées !

WunderBlogs® & News

Nearby

Qualité de l'air

  Qualité de l'air Indice de la qualité de l'air Polluant
Not available.

Épaisseur de neige

Station Depth Altitude

Activité sismique

Ville Distance Mag. Time & Date
Minimum magnitude displayed is 2.5.

Températures des eaux côtières

Lieu Température

Stations météo à proximité